createdAt,value
2022-12-22T00:00:04.624Z,98201.22
2022-12-22T00:01:32.422Z,98193.13
2022-12-22T00:02:54.089Z,98198.75
2022-12-22T00:04:15.663Z,98191.88
2022-12-22T00:05:40.592Z,98194.81
2022-12-22T00:07:02.670Z,98201.44
2022-12-22T00:08:26.015Z,98202.91
2022-12-22T00:09:47.997Z,98203.16
2022-12-22T00:11:10.699Z,98200.19
2022-12-22T00:12:33.936Z,98200.97
2022-12-22T00:13:55.728Z,98200.97
2022-12-22T00:15:18.104Z,98199.72
2022-12-22T00:16:40.524Z,98205.31
2022-12-22T00:18:02.328Z,98203.88
2022-12-22T00:19:32.759Z,98195.25
2022-12-22T00:20:53.943Z,98194.53
2022-12-22T00:22:20.373Z,98192.56
2022-12-22T00:23:41.673Z,98199.66
2022-12-22T00:25:03.160Z,98198.94
2022-12-22T00:26:24.866Z,98196.97
2022-12-22T00:27:49.510Z,98194.25
2022-12-22T00:29:11.179Z,98196.44
2022-12-22T00:30:34.255Z,98194.47
2022-12-22T00:31:58.257Z,98198.62
2022-12-22T00:33:21.800Z,98181.19
2022-12-22T00:34:43.419Z,98190.53
2022-12-22T00:36:05.340Z,98187.81
2022-12-22T00:37:31.557Z,98186.59
2022-12-22T00:38:53.180Z,98189.28
2022-12-22T00:40:14.676Z,98189.28
2022-12-22T00:41:36.274Z,98187.34
2022-12-22T00:42:57.975Z,98193.47
2022-12-22T00:44:19.571Z,98188.06
2022-12-22T00:45:41.592Z,98190.78
2022-12-22T00:47:04.786Z,98191.50
2022-12-22T00:48:42.152Z,98186.09
2022-12-22T00:50:06.746Z,98178.44
2022-12-22T00:51:31.110Z,98186.75
2022-12-22T00:52:54.581Z,98189.19
2022-12-22T00:54:15.841Z,98187.16
2022-12-22T00:55:43.866Z,98186.19
2022-12-22T00:57:05.905Z,98186.72
2022-12-22T00:58:35.507Z,98189.13
2022-12-22T00:59:57.236Z,98188.69
2022-12-22T01:01:19.142Z,98189.63
2022-12-22T01:02:40.794Z,98183.50
2022-12-22T01:04:02.580Z,98178.09
2022-12-22T01:05:24.459Z,98171.97
2022-12-22T01:06:49.962Z,98178.09
2022-12-22T01:08:11.862Z,98174.88
2022-12-22T01:09:33.345Z,98177.81
2022-12-22T01:10:54.925Z,98173.88
2022-12-22T01:12:16.617Z,98175.03
2022-12-22T01:13:38.461Z,98177.50
2022-12-22T01:14:59.949Z,98180.44
2022-12-22T01:16:21.615Z,98180.44
2022-12-22T01:17:43.295Z,98169.84
2022-12-22T01:19:08.049Z,98176.88
2022-12-22T01:20:30.127Z,98165.84
2022-12-22T01:21:51.345Z,98173.44
2022-12-22T01:23:12.737Z,98169.72
2022-12-22T01:24:36.540Z,98161.69
2022-12-22T01:25:58.296Z,98161.16
2022-12-22T01:27:19.916Z,98162.66
2022-12-22T01:28:43.527Z,98165.34
2022-12-22T01:30:05.290Z,98154.22
2022-12-22T01:31:40.911Z,98141.16
2022-12-22T01:33:03.012Z,98138.09
2022-12-22T01:34:24.331Z,98125.66
2022-12-22T01:35:50.256Z,98136.47
2022-12-22T01:37:11.844Z,98134.44
2022-12-22T01:38:34.469Z,98138.69
2022-12-22T01:39:56.335Z,98140.97
2022-12-22T01:41:21.163Z,98145.31
2022-12-22T01:42:43.401Z,98139.72
2022-12-22T01:44:05.333Z,98144.88
2022-12-22T01:45:43.024Z,98146.56
2022-12-22T01:47:05.894Z,98146.56
2022-12-22T01:48:35.800Z,98135.56
2022-12-22T01:50:02.814Z,98139.47
2022-12-22T01:51:30.052Z,98141.97
2022-12-22T01:52:55.163Z,98146.38
2022-12-22T01:54:17.779Z,98148.53
2022-12-22T01:55:43.558Z,98151.25
2022-12-22T01:57:06.581Z,98147.31
2022-12-22T01:58:49.139Z,98145.03
2022-12-22T02:00:10.700Z,98145.50
2022-12-22T02:01:33.497Z,98142.78
2022-12-22T02:02:55.264Z,98140.81
2022-12-22T02:04:16.950Z,98135.81
2022-12-22T02:05:39.942Z,98136.56
2022-12-22T02:07:05.397Z,98131.66
2022-12-22T02:08:42.236Z,98132.41
2022-12-22T02:10:17.291Z,98134.09
2022-12-22T02:12:04.858Z,98128.44
2022-12-22T02:13:51.436Z,98129.62
2022-12-22T02:15:29.201Z,98123.47
2022-12-22T02:17:01.582Z,98121.50
2022-12-22T02:18:27.668Z,98119.75
2022-12-22T02:19:55.902Z,98118.00
2022-12-22T02:21:24.740Z,98121.34
2022-12-22T02:23:05.906Z,98122.16
2022-12-22T02:24:58.275Z,98127.28
2022-12-22T02:26:38.388Z,98123.63
2022-12-22T02:28:01.716Z,98121.66
2022-12-22T02:29:25.719Z,98131.75
2022-12-22T02:30:48.591Z,98139.84
2022-12-22T02:32:10.349Z,98127.78
2022-12-22T02:33:31.821Z,98138.59
2022-12-22T02:34:53.510Z,98138.81
2022-12-22T02:36:30.659Z,98142.75
2022-12-22T02:38:39.142Z,98128.53
2022-12-22T02:40:29.438Z,98129.53
2022-12-22T02:42:00.092Z,98136.63
2022-12-22T02:43:22.120Z,98119.25
2022-12-22T02:44:55.005Z,98115.09
2022-12-22T02:46:48.108Z,98113.09
2022-12-22T02:48:25.059Z,98115.28
2022-12-22T02:49:58.035Z,98116.81
2022-12-22T02:51:30.547Z,98122.59
2022-12-22T02:52:55.741Z,98122.38
2022-12-22T02:54:18.073Z,98126.53
2022-12-22T02:55:40.043Z,98138.28
2022-12-22T02:57:03.815Z,98141.75
2022-12-22T02:58:25.957Z,98149.87
2022-12-22T02:59:47.752Z,98137.47
2022-12-22T03:01:11.080Z,98135.50
2022-12-22T03:02:33.315Z,98140.50
2022-12-22T03:03:54.895Z,98141.75
2022-12-22T03:05:16.520Z,98147.16
2022-12-22T03:06:38.445Z,98132.41
2022-12-22T03:08:06.111Z,98130.94
2022-12-22T03:09:30.670Z,98131.44
2022-12-22T03:10:52.498Z,98127.47
2022-12-22T03:12:13.828Z,98139.06
2022-12-22T03:13:35.432Z,98133.13
2022-12-22T03:14:57.479Z,98124.06
2022-12-22T03:16:18.502Z,98122.81
2022-12-22T03:17:40.388Z,98124.50
2022-12-22T03:19:01.883Z,98125.22
2022-12-22T03:20:24.421Z,98120.53
2022-12-22T03:21:46.260Z,98122.75
2022-12-22T03:23:08.047Z,98122.50
2022-12-22T03:24:29.740Z,98125.44
2022-12-22T03:25:52.365Z,98119.81
2022-12-22T03:26:55.431Z,98109.50
2022-12-22T03:28:07.967Z,98112.94
2022-12-22T03:29:11.119Z,98109.22
2022-12-22T03:30:14.192Z,98106.22
2022-12-22T03:31:17.547Z,98109.97
2022-12-22T03:32:20.768Z,98106.81
2022-12-22T03:33:23.796Z,98103.16
2022-12-22T03:34:26.936Z,98100.25
2022-12-22T03:35:30.266Z,98096.81
2022-12-22T03:36:33.710Z,98096.53
2022-12-22T03:37:36.796Z,98093.09
2022-12-22T03:38:40.168Z,98088.91
2022-12-22T03:39:43.464Z,98094.31
2022-12-22T03:40:47.083Z,98088.19
2022-12-22T03:42:08.699Z,98088.19
2022-12-22T03:43:32.035Z,98089.44
2022-12-22T03:44:53.979Z,98087.44
2022-12-22T03:46:15.409Z,98087.25
2022-12-22T03:47:18.464Z,98085.06
2022-12-22T03:48:24.088Z,98080.87
2022-12-22T03:49:27.196Z,98085.56
2022-12-22T03:50:30.186Z,98080.69
2022-12-22T03:51:34.056Z,98083.38
2022-12-22T03:52:37.062Z,98077.25
2022-12-22T03:53:39.987Z,98089.00
2022-12-22T03:54:43.079Z,98094.31
2022-12-22T03:55:45.969Z,98089.88
2022-12-22T03:56:49.907Z,98097.88
2022-12-22T03:57:53.260Z,98096.56
2022-12-22T03:58:57.459Z,98100.19
2022-12-22T04:00:00.527Z,98092.31
2022-12-22T04:01:07.905Z,98093.03
2022-12-22T04:02:11.261Z,98096.25
2022-12-22T04:03:14.601Z,98101.97
2022-12-22T04:04:19.740Z,98107.47
2022-12-22T04:05:22.952Z,98113.38
2022-12-22T04:06:26.188Z,98106.81
2022-12-22T04:07:29.470Z,98113.97
2022-12-22T04:08:33.223Z,98118.44
2022-12-22T04:09:36.222Z,98118.97
2022-12-22T04:10:57.989Z,98116.03
2022-12-22T04:12:39.601Z,98122.16
2022-12-22T04:13:42.806Z,98121.44
2022-12-22T04:14:45.665Z,98120.69
2022-12-22T04:15:48.700Z,98126.34
2022-12-22T04:16:51.739Z,98120.69
2022-12-22T04:17:55.421Z,98117.28
2022-12-22T04:18:58.796Z,98119.75
2022-12-22T04:20:02.009Z,98119.75
2022-12-22T04:21:05.224Z,98117.78
2022-12-22T04:22:08.406Z,98124.44
2022-12-22T04:23:11.588Z,98121.50
2022-12-22T04:24:15.100Z,98121.50
2022-12-22T04:25:18.228Z,98122.75
2022-12-22T04:26:24.064Z,98120.06
2022-12-22T04:27:27.028Z,98124.72
2022-12-22T04:28:30.516Z,98125.66
2022-12-22T04:29:33.566Z,98119.75
2022-12-22T04:30:36.607Z,98127.16
2022-12-22T04:31:39.606Z,98128.38
2022-12-22T04:32:42.614Z,98128.88
2022-12-22T04:33:45.980Z,98127.22
2022-12-22T04:34:49.137Z,98121.09
2022-12-22T04:35:52.332Z,98117.63
2022-12-22T04:36:58.893Z,98115.44
2022-12-22T04:38:05.411Z,98112.75
2022-12-22T04:39:08.544Z,98101.72
2022-12-22T04:40:11.615Z,98104.44
2022-12-22T04:41:14.742Z,98105.69
2022-12-22T04:42:17.802Z,98109.59
2022-12-22T04:43:20.929Z,98108.88
2022-12-22T04:44:23.874Z,98112.09
2022-12-22T04:45:30.141Z,98115.25
2022-12-22T04:46:33.689Z,98107.25
2022-12-22T04:47:36.887Z,98104.03
2022-12-22T04:48:40.364Z,98111.00
2022-12-22T04:49:43.632Z,98107.34
2022-12-22T04:50:46.848Z,98103.19
2022-12-22T04:51:49.723Z,98099.03
2022-12-22T04:52:52.922Z,98094.87
2022-12-22T04:53:58.122Z,98093.38
2022-12-22T04:55:01.179Z,98087.69
2022-12-22T04:56:07.485Z,98093.75
2022-12-22T04:57:10.422Z,98090.53
2022-12-22T04:58:13.673Z,98091.19
2022-12-22T04:59:17.218Z,98086.59
2022-12-22T05:00:20.607Z,98091.50
2022-12-22T05:01:23.974Z,98090.53
2022-12-22T05:02:27.427Z,98097.63
2022-12-22T05:03:30.638Z,98095.13
2022-12-22T05:04:33.705Z,98095.94
2022-12-22T05:05:36.751Z,98095.72
2022-12-22T05:06:39.784Z,98086.69
2022-12-22T05:07:43.742Z,98089.38
2022-12-22T05:08:47.349Z,98084.19
2022-12-22T05:09:50.546Z,98086.38
2022-12-22T05:10:53.737Z,98089.06
2022-12-22T05:11:56.732Z,98086.38
2022-12-22T05:12:59.959Z,98092.50
2022-12-22T05:14:07.153Z,98087.81
2022-12-22T05:15:11.419Z,98090.03
2022-12-22T05:16:16.891Z,98084.31
2022-12-22T05:17:20.406Z,98084.84
2022-12-22T05:18:23.665Z,98090.53
2022-12-22T05:19:30.756Z,98084.38
2022-12-22T05:20:36.009Z,98091.03
2022-12-22T05:21:39.067Z,98086.38
2022-12-22T05:22:46.106Z,98089.06
2022-12-22T05:23:49.664Z,98090.03
2022-12-22T05:24:52.653Z,98087.97
2022-12-22T05:25:55.678Z,98089.94
2022-12-22T05:26:58.701Z,98092.22
2022-12-22T05:28:01.620Z,98098.88
2022-12-22T05:29:04.865Z,98100.12
2022-12-22T05:30:08.583Z,98098.13
2022-12-22T05:31:18.522Z,98105.13
2022-12-22T05:32:21.714Z,98106.59
2022-12-22T05:33:24.752Z,98102.66
2022-12-22T05:34:27.902Z,98104.72
2022-12-22T05:35:30.939Z,98100.31
2022-12-22T05:36:34.234Z,98096.88
2022-12-22T05:37:37.182Z,98097.63
2022-12-22T05:38:40.713Z,98090.03
2022-12-22T05:39:44.058Z,98081.19
2022-12-22T05:40:47.017Z,98083.28
2022-12-22T05:41:49.965Z,98081.22
2022-12-22T05:42:53.338Z,98079.25
2022-12-22T05:43:56.271Z,98083.72
2022-12-22T05:44:59.370Z,98076.44
2022-12-22T05:46:08.285Z,98076.19
2022-12-22T05:47:11.348Z,98076.19
2022-12-22T05:48:17.143Z,98075.47
2022-12-22T05:49:26.121Z,98074.25
2022-12-22T05:50:29.304Z,98080.37
2022-12-22T05:51:32.242Z,98083.09
2022-12-22T05:52:35.603Z,98081.84
2022-12-22T05:53:39.666Z,98080.06
2022-12-22T05:54:42.564Z,98081.53
2022-12-22T05:55:45.688Z,98090.16
2022-12-22T05:56:48.672Z,98086.53
2022-12-22T05:57:52.070Z,98091.94
2022-12-22T05:58:55.357Z,98090.25
2022-12-22T05:59:58.450Z,98090.75
2022-12-22T06:01:02.180Z,98096.59
2022-12-22T06:02:05.161Z,98106.16
2022-12-22T06:03:08.373Z,98093.66
2022-12-22T06:04:11.653Z,98098.88
2022-12-22T06:05:15.597Z,98093.97
2022-12-22T06:06:18.687Z,98095.94
2022-12-22T06:07:21.942Z,98092.50
2022-12-22T06:08:27.139Z,98095.00
2022-12-22T06:09:30.264Z,98093.03
2022-12-22T06:10:33.380Z,98095.00
2022-12-22T06:11:36.589Z,98103.09
2022-12-22T06:12:40.613Z,98094.06
2022-12-22T06:13:43.707Z,98096.75
2022-12-22T06:14:46.782Z,98092.59
2022-12-22T06:15:50.101Z,98089.16
2022-12-22T06:16:53.102Z,98091.12
2022-12-22T06:17:56.183Z,98089.88
2022-12-22T06:18:59.261Z,98095.53
2022-12-22T06:20:02.609Z,98091.38
2022-12-22T06:21:05.968Z,98085.97
2022-12-22T06:22:08.903Z,98083.75
2022-12-22T06:23:11.825Z,98081.78
2022-12-22T06:24:14.659Z,98083.25
2022-12-22T06:25:18.775Z,98090.53
2022-12-22T06:26:22.221Z,98086.59
2022-12-22T06:27:25.097Z,98089.31
2022-12-22T06:28:29.835Z,98082.84
2022-12-22T06:29:33.199Z,98085.78
2022-12-22T06:30:36.147Z,98083.59
2022-12-22T06:31:39.038Z,98088.78
2022-12-22T06:32:45.352Z,98092.00
2022-12-22T06:33:48.500Z,98099.59
2022-12-22T06:34:52.206Z,98090.13
2022-12-22T06:35:58.989Z,98091.84
2022-12-22T06:37:02.588Z,98098.72
2022-12-22T06:38:05.706Z,98098.00
2022-12-22T06:39:08.579Z,98107.34
2022-12-22T06:40:11.836Z,98113.47
2022-12-22T06:41:38.259Z,98114.72
2022-12-22T06:43:07.830Z,98117.94
2022-12-22T06:44:11.569Z,98118.66
2022-12-22T06:45:14.507Z,98117.94
2022-12-22T06:46:17.763Z,98120.84
2022-12-22T06:47:20.930Z,98123.78
2022-12-22T06:48:25.693Z,98128.69
2022-12-22T06:49:28.943Z,98122.31
2022-12-22T06:50:32.348Z,98116.91
2022-12-22T06:51:35.311Z,98113.25
2022-12-22T06:52:38.389Z,98121.91
2022-12-22T06:53:41.466Z,98121.28
2022-12-22T06:54:44.406Z,98118.00
2022-12-22T06:55:47.469Z,98114.72
2022-12-22T06:56:52.294Z,98118.00
2022-12-22T06:57:55.360Z,98115.28
2022-12-22T06:59:02.351Z,98115.16
2022-12-22T07:00:06.011Z,98102.16
2022-12-22T07:01:08.961Z,98113.09
2022-12-22T07:02:12.733Z,98108.31
2022-12-22T07:03:16.145Z,98119.13
2022-12-22T07:04:21.682Z,98112.75
2022-12-22T07:05:24.938Z,98119.19
2022-12-22T07:06:28.337Z,98118.22
2022-12-22T07:07:31.471Z,98109.19
2022-12-22T07:08:34.547Z,98114.59
2022-12-22T07:09:37.657Z,98111.37
2022-12-22T07:10:58.868Z,98103.47
2022-12-22T07:12:01.800Z,98114.50
2022-12-22T07:13:19.547Z,98110.03
2022-12-22T07:14:23.108Z,98113.47
2022-12-22T07:15:26.160Z,98108.78
2022-12-22T07:16:29.427Z,98106.62
2022-12-22T07:17:32.489Z,98104.44
2022-12-22T07:18:37.773Z,98115.25
2022-12-22T07:19:41.080Z,98108.38
2022-12-22T07:20:44.068Z,98111.81
2022-12-22T07:21:49.217Z,98108.06
2022-12-22T07:22:52.346Z,98106.09
2022-12-22T07:23:55.332Z,98104.88
2022-12-22T07:24:58.979Z,98111.94
2022-12-22T07:26:02.694Z,98112.16
2022-12-22T07:27:05.862Z,98111.66
2022-12-22T07:28:09.988Z,98114.34
2022-12-22T07:29:16.145Z,98115.59
2022-12-22T07:30:18.987Z,98115.59
2022-12-22T07:31:22.038Z,98110.19
2022-12-22T07:32:25.767Z,98113.41
2022-12-22T07:33:29.087Z,98114.84
2022-12-22T07:34:32.061Z,98114.12
2022-12-22T07:35:35.113Z,98108.72
2022-12-22T07:36:38.125Z,98113.63
2022-12-22T07:37:41.061Z,98113.41
2022-12-22T07:38:47.959Z,98113.63
2022-12-22T07:39:50.785Z,98119.75
2022-12-22T07:41:04.543Z,98119.25
2022-12-22T07:42:30.116Z,98116.75
2022-12-22T07:43:33.360Z,98112.59
2022-12-22T07:44:36.337Z,98117.50
2022-12-22T07:45:39.547Z,98123.63
2022-12-22T07:46:42.680Z,98137.16
2022-12-22T07:47:46.699Z,98129.25
2022-12-22T07:49:08.680Z,98125.28
2022-12-22T07:50:28.731Z,98137.56
2022-12-22T07:51:36.412Z,98146.63
2022-12-22T07:52:39.264Z,98149.34
2022-12-22T07:53:42.316Z,98132.59
2022-12-22T07:54:45.325Z,98135.31
2022-12-22T07:55:48.384Z,98123.97
2022-12-22T07:56:51.478Z,98130.09
2022-12-22T07:57:55.348Z,98126.37
2022-12-22T07:58:58.520Z,98126.09
2022-12-22T08:00:01.490Z,98129.72
2022-12-22T08:01:04.552Z,98126.50
2022-12-22T08:02:12.242Z,98121.81
2022-12-22T08:03:15.470Z,98124.75
2022-12-22T08:04:18.604Z,98124.75
2022-12-22T08:05:22.914Z,98123.94
2022-12-22T08:06:26.357Z,98130.00
2022-12-22T08:07:29.905Z,98128.53
2022-12-22T08:08:37.426Z,98127.50
2022-12-22T08:09:40.506Z,98123.53
2022-12-22T08:10:43.603Z,98127.41
2022-12-22T08:11:46.838Z,98122.88
2022-12-22T08:12:49.862Z,98130.25
2022-12-22T08:13:59.101Z,98133.25
2022-12-22T08:15:05.384Z,98124.41
2022-12-22T08:16:11.600Z,98125.13
2022-12-22T08:17:15.345Z,98131.72
2022-12-22T08:18:19.783Z,98129.94
2022-12-22T08:19:22.977Z,98131.81
2022-12-22T08:20:26.275Z,98128.09
2022-12-22T08:21:29.365Z,98124.13
2022-12-22T08:22:33.009Z,98122.16
2022-12-22T08:23:36.775Z,98117.66
2022-12-22T08:24:39.689Z,98112.50
2022-12-22T08:25:43.039Z,98112.91
2022-12-22T08:26:49.740Z,98111.88
2022-12-22T08:27:56.281Z,98114.28
2022-12-22T08:29:24.643Z,98107.41
2022-12-22T08:30:27.869Z,98108.34
2022-12-22T08:31:31.190Z,98106.97
2022-12-22T08:32:36.449Z,98101.16
2022-12-22T08:33:39.526Z,98113.94
2022-12-22T08:34:43.345Z,98107.59
2022-12-22T08:35:46.300Z,98108.63
2022-12-22T08:36:53.274Z,98108.13
2022-12-22T08:37:57.697Z,98111.34
2022-12-22T08:39:01.135Z,98110.31
2022-12-22T08:40:08.963Z,98114.47
2022-12-22T08:41:17.033Z,98121.16
2022-12-22T08:42:22.254Z,98122.41
2022-12-22T08:43:26.435Z,98121.66
2022-12-22T08:44:31.010Z,98123.31
2022-12-22T08:45:37.286Z,98122.78
2022-12-22T08:46:40.294Z,98122.06
2022-12-22T08:47:44.343Z,98126.56
2022-12-22T08:48:50.012Z,98130.72
2022-12-22T08:49:52.873Z,98131.66
2022-12-22T08:50:55.851Z,98136.56
2022-12-22T08:51:59.282Z,98136.75
2022-12-22T08:53:06.662Z,98137.72
2022-12-22T08:54:09.756Z,98144.06
2022-12-22T08:55:12.943Z,98139.50
2022-12-22T08:56:15.912Z,98128.44
2022-12-22T08:57:19.170Z,98141.25
2022-12-22T08:58:23.238Z,98133.22
2022-12-22T08:59:26.121Z,98141.16
2022-12-22T09:00:29.733Z,98124.69
2022-12-22T09:01:33.939Z,98126.16
2022-12-22T09:02:39.040Z,98137.09
2022-12-22T09:03:42.180Z,98129.50
2022-12-22T09:04:45.285Z,98130.00
2022-12-22T09:05:48.180Z,98134.91
2022-12-22T09:06:52.748Z,98120.66
2022-12-22T09:07:55.961Z,98120.13
2022-12-22T09:09:01.503Z,98115.44
2022-12-22T09:10:04.949Z,98112.91
2022-12-22T09:11:08.161Z,98107.31
2022-12-22T09:12:12.070Z,98105.53
2022-12-22T09:13:15.654Z,98093.47
2022-12-22T09:14:18.738Z,98101.78
2022-12-22T09:15:21.795Z,98100.00
2022-12-22T09:16:26.789Z,98098.44
2022-12-22T09:17:31.487Z,98104.09
2022-12-22T09:18:34.811Z,98110.22
2022-12-22T09:19:38.074Z,98106.28
2022-12-22T09:20:41.277Z,98099.41
2022-12-22T09:21:45.325Z,98092.53
2022-12-22T09:22:49.697Z,98089.91
2022-12-22T09:23:52.799Z,98091.16
2022-12-22T09:24:55.647Z,98084.50
2022-12-22T09:25:58.708Z,98078.66
2022-12-22T09:27:03.804Z,98084.06
2022-12-22T09:28:09.548Z,98086.59
2022-12-22T09:29:15.962Z,98091.78
2022-12-22T09:30:19.147Z,98084.50
2022-12-22T09:31:23.905Z,98085.63
2022-12-22T09:32:28.516Z,98090.84
2022-12-22T09:33:32.669Z,98090.63
2022-12-22T09:34:35.816Z,98090.09
2022-12-22T09:35:41.989Z,98084.91
2022-12-22T09:36:46.041Z,98077.72
2022-12-22T09:37:50.162Z,98084.69
2022-12-22T09:38:53.288Z,98079.59
2022-12-22T09:39:56.173Z,98084.50
2022-12-22T09:40:59.424Z,98082.50
2022-12-22T09:42:02.974Z,98074.91
2022-12-22T09:43:06.232Z,98083.97
2022-12-22T09:44:26.253Z,98089.50
2022-12-22T09:45:29.468Z,98085.84
2022-12-22T09:46:37.179Z,98087.41
2022-12-22T09:47:41.495Z,98086.47
2022-12-22T09:48:44.403Z,98088.22
2022-12-22T09:49:47.985Z,98086.34
2022-12-22T09:50:50.875Z,98086.16
2022-12-22T09:51:58.491Z,98084.19
2022-12-22T09:53:05.216Z,98083.97
2022-12-22T09:54:11.709Z,98073.56
2022-12-22T09:55:20.035Z,98077.31
2022-12-22T09:56:25.825Z,98064.81
2022-12-22T09:57:31.688Z,98068.56
2022-12-22T09:58:36.071Z,98058.78
2022-12-22T09:59:38.860Z,98062.94
2022-12-22T10:00:43.766Z,98058.56
2022-12-22T10:02:11.775Z,98063.47
2022-12-22T10:03:24.460Z,98053.69
2022-12-22T10:04:30.089Z,98058.37
2022-12-22T10:05:51.766Z,98054.19
2022-12-22T10:07:03.370Z,98051.72
2022-12-22T10:08:22.076Z,98061.06
2022-12-22T10:10:01.881Z,98055.97
2022-12-22T10:10:55.985Z,98059.00
2022-12-22T10:12:01.943Z,98055.56
2022-12-22T10:13:06.364Z,98065.34
2022-12-22T10:14:11.510Z,98061.78
2022-12-22T10:15:19.984Z,98063.25
2022-12-22T10:16:28.766Z,98058.25
2022-12-22T10:17:34.343Z,98050.75
2022-12-22T10:18:38.743Z,98050.09
2022-12-22T10:19:42.091Z,98043.09
2022-12-22T10:21:11.312Z,98045.50
2022-12-22T10:22:31.010Z,98039.97
2022-12-22T10:23:38.927Z,98031.31
2022-12-22T10:24:42.092Z,98043.28
2022-12-22T10:26:30.844Z,98040.03
2022-12-22T10:27:43.012Z,98039.31
2022-12-22T10:28:52.514Z,98034.50
2022-12-22T10:30:15.743Z,98028.97
2022-12-22T10:31:26.172Z,98031.91
2022-12-22T10:32:29.212Z,98028.84
2022-12-22T10:33:34.932Z,98026.53
2022-12-22T10:34:37.860Z,98016.81
2022-12-22T10:35:50.939Z,98025.56
2022-12-22T10:37:01.718Z,98027.19
2022-12-22T10:38:21.800Z,98022.00
2022-12-22T10:39:35.743Z,98019.87
2022-12-22T10:40:47.879Z,98020.28
2022-12-22T10:41:55.464Z,98005.66
2022-12-22T10:42:58.572Z,98004.59
2022-12-22T10:44:10.002Z,98012.37
2022-12-22T10:45:21.457Z,98008.81
2022-12-22T10:46:39.617Z,98011.19
2022-12-22T10:47:49.837Z,98013.38
2022-12-22T10:48:53.092Z,98005.47
2022-12-22T10:50:03.371Z,97998.41
2022-12-22T10:51:09.514Z,98005.31
2022-12-22T10:52:29.622Z,98007.62
2022-12-22T10:53:59.966Z,98021.00
2022-12-22T10:55:23.797Z,98027.06
2022-12-22T10:56:29.980Z,98030.88
2022-12-22T10:57:32.985Z,98021.47
2022-12-22T10:58:51.967Z,98031.44
2022-12-22T10:59:59.767Z,98024.22
2022-12-22T11:01:05.110Z,98027.16
2022-12-22T11:02:32.659Z,98024.94
2022-12-22T11:03:35.893Z,98025.03
2022-12-22T11:04:38.943Z,98015.09
2022-12-22T11:05:45.127Z,98015.81
2022-12-22T11:06:48.183Z,98021.44
2022-12-22T11:07:51.892Z,98015.22
2022-12-22T11:09:05.665Z,98020.16
2022-12-22T11:10:38.585Z,98011.87
2022-12-22T11:12:16.250Z,98001.97
2022-12-22T11:13:36.752Z,98009.00
2022-12-22T11:15:18.531Z,98010.25
2022-12-22T11:16:57.722Z,97998.88
2022-12-22T11:18:17.201Z,98002.56
2022-12-22T11:19:48.884Z,98004.72
2022-12-22T11:21:01.556Z,98008.72
2022-12-22T11:22:16.059Z,98006.50
2022-12-22T11:23:37.015Z,98001.66
2022-12-22T11:25:15.347Z,98002.41
2022-12-22T11:26:54.896Z,97997.88
2022-12-22T11:28:03.862Z,97998.94
2022-12-22T11:29:28.228Z,97990.66
2022-12-22T11:30:47.461Z,97989.19
2022-12-22T11:32:05.281Z,97979.41
2022-12-22T11:33:58.928Z,97977.03
2022-12-22T11:35:01.764Z,97982.09
2022-12-22T11:36:34.340Z,97986.06
2022-12-22T11:37:51.922Z,97993.81
2022-12-22T11:39:24.129Z,97998.53
2022-12-22T11:40:32.735Z,97991.66
2022-12-22T11:41:57.717Z,97994.19
2022-12-22T11:43:35.369Z,98003.37
2022-12-22T11:44:47.593Z,98014.06
2022-12-22T11:45:56.308Z,98009.00
2022-12-22T11:47:20.354Z,98014.09
2022-12-22T11:48:32.835Z,98014.63
2022-12-22T11:49:54.124Z,98013.72
2022-12-22T11:51:29.254Z,98008.81
2022-12-22T11:52:38.321Z,98002.09
2022-12-22T11:54:13.194Z,98001.38
2022-12-22T11:55:37.673Z,97993.38
2022-12-22T11:57:08.163Z,98004.47
2022-12-22T11:58:26.549Z,98013.13
2022-12-22T11:59:30.597Z,98010.75
2022-12-22T12:01:13.078Z,98019.41
2022-12-22T12:02:41.981Z,98013.47
2022-12-22T12:04:01.621Z,98012.59
2022-12-22T12:05:25.612Z,98011.81
2022-12-22T12:06:28.635Z,98007.78
2022-12-22T12:08:00.102Z,97998.94
2022-12-22T12:09:21.454Z,98010.84
2022-12-22T12:10:59.849Z,98009.59
2022-12-22T12:12:13.896Z,97990.59
2022-12-22T12:13:37.602Z,97991.13
2022-12-22T12:14:54.617Z,97993.31
2022-12-22T12:16:20.622Z,97982.97
2022-12-22T12:17:44.625Z,97982.66
2022-12-22T12:18:53.359Z,97989.66
2022-12-22T12:20:30.039Z,97987.28
2022-12-22T12:21:36.501Z,97971.22
2022-12-22T12:23:11.504Z,97980.41
2022-12-22T12:24:30.355Z,97966.13
2022-12-22T12:25:42.951Z,97967.78
2022-12-22T12:27:03.774Z,97976.09
2022-12-22T12:28:24.420Z,97989.47
2022-12-22T12:29:37.385Z,97981.47
2022-12-22T12:30:52.668Z,98000.12
2022-12-22T12:32:01.663Z,98004.81
2022-12-22T12:33:21.919Z,98021.09
2022-12-22T12:34:27.616Z,98018.53
2022-12-22T12:35:51.228Z,98024.69
2022-12-22T12:37:04.359Z,98022.81
2022-12-22T12:38:47.994Z,98021.78
2022-12-22T12:40:27.221Z,98021.97
2022-12-22T12:41:57.770Z,98023.44
2022-12-22T12:43:02.613Z,98020.91
2022-12-22T12:44:09.661Z,98021.06
2022-12-22T12:45:43.251Z,98028.66
2022-12-22T12:46:52.736Z,98030.78
2022-12-22T12:48:22.147Z,98021.72
2022-12-22T12:49:56.102Z,98026.75
2022-12-22T12:50:59.745Z,98023.09
2022-12-22T12:52:12.762Z,98016.81
2022-12-22T12:53:17.418Z,98018.81
2022-12-22T12:54:40.706Z,98013.78
2022-12-22T12:55:53.113Z,98009.91
2022-12-22T12:57:00.886Z,98008.06
2022-12-22T12:58:05.737Z,98010.53
2022-12-22T12:59:08.751Z,98007.59
2022-12-22T13:00:44.921Z,98003.87
2022-12-22T13:01:58.435Z,98013.38
2022-12-22T13:03:30.507Z,98005.31
2022-12-22T13:05:00.789Z,98011.37
2022-12-22T13:06:05.975Z,98005.25
2022-12-22T13:07:08.951Z,97999.78
2022-12-22T13:08:25.439Z,98004.59
2022-12-22T13:10:54.814Z,98000.22
2022-12-22T13:12:16.147Z,97999.81
2022-12-22T13:13:40.765Z,98006.31
2022-12-22T13:14:58.651Z,97998.22
2022-12-22T13:16:04.727Z,97990.81
2022-12-22T13:17:42.773Z,97985.34
2022-12-22T13:18:51.163Z,97983.91
2022-12-22T13:19:56.150Z,97980.91
2022-12-22T13:21:26.081Z,97988.69
2022-12-22T13:22:23.936Z,97986.50
2022-12-22T13:23:51.326Z,97992.12
2022-12-22T13:25:02.872Z,97992.66
2022-12-22T13:26:10.454Z,97992.12
2022-12-22T13:27:13.804Z,97980.94
2022-12-22T13:28:19.515Z,97990.00
2022-12-22T13:29:22.685Z,97979.88
2022-12-22T13:30:30.904Z,97983.31
2022-12-22T13:31:43.402Z,97975.38
2022-12-22T13:32:49.409Z,97976.28
2022-12-22T13:34:05.045Z,97963.66
2022-12-22T13:35:33.900Z,97961.66
2022-12-22T13:36:39.173Z,97952.59
2022-12-22T13:37:46.466Z,97957.81
2022-12-22T13:39:00.588Z,97946.97
2022-12-22T13:40:42.890Z,97944.06
2022-12-22T13:41:50.345Z,97948.25
2022-12-22T13:42:57.707Z,97941.38
2022-12-22T13:44:07.956Z,97942.63
2022-12-22T13:45:16.879Z,97939.19
2022-12-22T13:46:20.412Z,97934.66
2022-12-22T13:47:23.426Z,97932.50
2022-12-22T13:48:45.083Z,97932.28
2022-12-22T13:50:08.364Z,97938.66
2022-12-22T13:51:21.856Z,97936.66
2022-12-22T13:52:25.089Z,97935.94
2022-12-22T13:54:09.935Z,97928.84
2022-12-22T13:55:18.786Z,97922.69
2022-12-22T13:56:28.353Z,97905.00
2022-12-22T13:57:31.939Z,97908.44
2022-12-22T13:58:41.293Z,97910.06
2022-12-22T13:59:46.756Z,97919.25
2022-12-22T14:01:14.281Z,97931.72
2022-12-22T14:02:20.082Z,97923.38
2022-12-22T14:03:50.207Z,97913.81
2022-12-22T14:05:08.189Z,97923.72
2022-12-22T14:06:27.203Z,97950.19
2022-12-22T14:07:30.366Z,97940.38
2022-12-22T14:08:35.285Z,97939.34
2022-12-22T14:09:43.200Z,97927.69